sensor_id;sensor_type;location;lat;lon;timestamp;P1;durP1;ratioP1;P2;durP2;ratioP2
22622;SDS011;11478;51.094;7.030;2023-05-10T00:02:15;31.13;;;17.17;;
22622;SDS011;11478;51.094;7.030;2023-05-10T00:07:09;30.77;;;17.67;;
22622;SDS011;11478;51.094;7.030;2023-05-10T00:09:35;29.20;;;17.60;;
22622;SDS011;11478;51.094;7.030;2023-05-10T00:12:01;30.75;;;18.33;;
22622;SDS011;11478;51.094;7.030;2023-05-10T00:14:28;29.23;;;17.83;;
22622;SDS011;11478;51.094;7.030;2023-05-10T00:16:54;30.67;;;17.52;;
22622;SDS011;11478;51.094;7.030;2023-05-10T00:19:19;29.60;;;17.67;;
22622;SDS011;11478;51.094;7.030;2023-05-10T00:21:45;33.40;;;18.38;;
22622;SDS011;11478;51.094;7.030;2023-05-10T00:24:14;34.28;;;18.73;;
22622;SDS011;11478;51.094;7.030;2023-05-10T00:26:40;32.35;;;17.83;;
22622;SDS011;11478;51.094;7.030;2023-05-10T00:29:08;33.67;;;19.35;;
22622;SDS011;11478;51.094;7.030;2023-05-10T00:31:40;40.20;;;18.80;;
22622;SDS011;11478;51.094;7.030;2023-05-10T00:34:06;36.78;;;18.67;;
22622;SDS011;11478;51.094;7.030;2023-05-10T00:36:34;33.80;;;17.90;;
22622;SDS011;11478;51.094;7.030;2023-05-10T00:39:00;35.90;;;18.92;;
22622;SDS011;11478;51.094;7.030;2023-05-10T00:41:30;33.47;;;18.02;;
22622;SDS011;11478;51.094;7.030;2023-05-10T00:43:59;35.22;;;18.88;;
22622;SDS011;11478;51.094;7.030;2023-05-10T00:46:27;35.25;;;18.63;;
22622;SDS011;11478;51.094;7.030;2023-05-10T00:48:53;35.03;;;19.15;;
22622;SDS011;11478;51.094;7.030;2023-05-10T00:53:48;39.05;;;19.83;;
22622;SDS011;11478;51.094;7.030;2023-05-10T00:56:16;37.38;;;20.23;;
22622;SDS011;11478;51.094;7.030;2023-05-10T00:58:42;37.20;;;19.77;;
22622;SDS011;11478;51.094;7.030;2023-05-10T01:01:08;37.40;;;19.23;;
22622;SDS011;11478;51.094;7.030;2023-05-10T01:03:35;40.50;;;19.90;;
22622;SDS011;11478;51.094;7.030;2023-05-10T01:06:04;39.80;;;20.13;;
22622;SDS011;11478;51.094;7.030;2023-05-10T01:08:31;38.95;;;19.90;;
22622;SDS011;11478;51.094;7.030;2023-05-10T01:11:00;44.28;;;20.40;;
22622;SDS011;11478;51.094;7.030;2023-05-10T01:16:03;42.05;;;20.15;;
22622;SDS011;11478;51.094;7.030;2023-05-10T01:21:13;38.28;;;19.15;;
22622;SDS011;11478;51.094;7.030;2023-05-10T01:30:05;44.35;;;21.00;;
22622;SDS011;11478;51.094;7.030;2023-05-10T01:36:27;38.45;;;19.95;;
22622;SDS011;11478;51.094;7.030;2023-05-10T01:39:02;38.90;;;19.90;;
22622;SDS011;11478;51.094;7.030;2023-05-10T01:44:35;38.08;;;20.17;;
22622;SDS011;11478;51.094;7.030;2023-05-10T01:47:43;41.22;;;20.23;;
22622;SDS011;11478;51.094;7.030;2023-05-10T01:50:22;42.00;;;21.00;;
22622;SDS011;11478;51.094;7.030;2023-05-10T01:52:57;43.20;;;21.15;;
22622;SDS011;11478;51.094;7.030;2023-05-10T01:55:25;39.70;;;20.45;;
22622;SDS011;11478;51.094;7.030;2023-05-10T01:58:18;40.47;;;20.40;;
22622;SDS011;11478;51.094;7.030;2023-05-10T02:00:53;38.85;;;18.92;;
22622;SDS011;11478;51.094;7.030;2023-05-10T02:03:24;31.10;;;16.48;;
22622;SDS011;11478;51.094;7.030;2023-05-10T02:05:52;27.20;;;15.45;;
22622;SDS011;11478;51.094;7.030;2023-05-10T02:08:22;29.65;;;15.15;;
22622;SDS011;11478;51.094;7.030;2023-05-10T02:10:49;27.75;;;15.10;;
22622;SDS011;11478;51.094;7.030;2023-05-10T02:13:21;29.10;;;14.30;;
22622;SDS011;11478;51.094;7.030;2023-05-10T02:15:49;23.13;;;14.05;;
22622;SDS011;11478;51.094;7.030;2023-05-10T02:18:18;25.27;;;13.88;;
22622;SDS011;11478;51.094;7.030;2023-05-10T02:20:45;23.55;;;12.55;;
22622;SDS011;11478;51.094;7.030;2023-05-10T02:23:14;24.88;;;11.70;;
22622;SDS011;11478;51.094;7.030;2023-05-10T02:25:43;21.42;;;10.95;;
22622;SDS011;11478;51.094;7.030;2023-05-10T02:28:14;21.30;;;9.65;;
22622;SDS011;11478;51.094;7.030;2023-05-10T02:30:42;15.82;;;9.77;;
22622;SDS011;11478;51.094;7.030;2023-05-10T02:33:11;16.73;;;10.13;;
22622;SDS011;11478;51.094;7.030;2023-05-10T02:35:38;16.60;;;9.90;;
22622;SDS011;11478;51.094;7.030;2023-05-10T02:38:05;18.65;;;9.52;;
22622;SDS011;11478;51.094;7.030;2023-05-10T02:40:32;18.60;;;9.55;;
22622;SDS011;11478;51.094;7.030;2023-05-10T02:43:01;17.77;;;10.93;;
22622;SDS011;11478;51.094;7.030;2023-05-10T02:45:30;18.08;;;9.32;;
22622;SDS011;11478;51.094;7.030;2023-05-10T02:47:58;16.77;;;9.80;;
22622;SDS011;11478;51.094;7.030;2023-05-10T02:50:25;16.65;;;9.85;;
22622;SDS011;11478;51.094;7.030;2023-05-10T02:52:56;14.45;;;9.30;;
22622;SDS011;11478;51.094;7.030;2023-05-10T02:55:29;16.63;;;9.77;;
22622;SDS011;11478;51.094;7.030;2023-05-10T02:58:02;20.73;;;10.05;;
22622;SDS011;11478;51.094;7.030;2023-05-10T03:00:29;18.27;;;10.68;;
22622;SDS011;11478;51.094;7.030;2023-05-10T03:02:57;23.75;;;11.70;;
22622;SDS011;11478;51.094;7.030;2023-05-10T03:07:58;23.30;;;11.57;;
22622;SDS011;11478;51.094;7.030;2023-05-10T03:10:30;20.88;;;11.45;;
22622;SDS011;11478;51.094;7.030;2023-05-10T03:21:05;23.02;;;13.13;;
22622;SDS011;11478;51.094;7.030;2023-05-10T03:23:35;24.02;;;13.80;;
22622;SDS011;11478;51.094;7.030;2023-05-10T03:26:29;28.55;;;14.85;;
22622;SDS011;11478;51.094;7.030;2023-05-10T03:28:56;26.67;;;15.00;;
22622;SDS011;11478;51.094;7.030;2023-05-10T03:31:24;25.42;;;14.27;;
22622;SDS011;11478;51.094;7.030;2023-05-10T03:33:51;26.77;;;14.57;;
22622;SDS011;11478;51.094;7.030;2023-05-10T03:36:18;28.25;;;14.52;;
22622;SDS011;11478;51.094;7.030;2023-05-10T03:38:46;28.88;;;13.98;;
22622;SDS011;11478;51.094;7.030;2023-05-10T03:41:13;38.97;;;16.55;;
22622;SDS011;11478;51.094;7.030;2023-05-10T03:43:39;30.60;;;15.38;;
22622;SDS011;11478;51.094;7.030;2023-05-10T03:46:11;27.42;;;15.52;;
22622;SDS011;11478;51.094;7.030;2023-05-10T03:48:36;26.50;;;15.13;;
22622;SDS011;11478;51.094;7.030;2023-05-10T03:51:03;30.10;;;15.30;;
22622;SDS011;11478;51.094;7.030;2023-05-10T03:53:28;29.33;;;15.27;;
22622;SDS011;11478;51.094;7.030;2023-05-10T03:55:55;35.03;;;16.52;;
22622;SDS011;11478;51.094;7.030;2023-05-10T03:58:21;40.78;;;17.30;;
22622;SDS011;11478;51.094;7.030;2023-05-10T04:00:48;32.05;;;16.70;;
22622;SDS011;11478;51.094;7.030;2023-05-10T04:03:14;36.08;;;16.67;;
22622;SDS011;11478;51.094;7.030;2023-05-10T04:05:44;41.22;;;17.65;;
22622;SDS011;11478;51.094;7.030;2023-05-10T04:08:10;33.88;;;16.00;;
22622;SDS011;11478;51.094;7.030;2023-05-10T04:10:41;34.67;;;16.20;;
22622;SDS011;11478;51.094;7.030;2023-05-10T04:13:07;40.33;;;17.20;;
22622;SDS011;11478;51.094;7.030;2023-05-10T04:15:36;31.67;;;16.15;;
22622;SDS011;11478;51.094;7.030;2023-05-10T04:18:02;31.88;;;15.45;;
22622;SDS011;11478;51.094;7.030;2023-05-10T04:20:29;36.25;;;16.63;;
22622;SDS011;11478;51.094;7.030;2023-05-10T04:23:00;34.70;;;15.55;;
22622;SDS011;11478;51.094;7.030;2023-05-10T04:25:26;33.28;;;15.95;;
22622;SDS011;11478;51.094;7.030;2023-05-10T04:27:52;33.75;;;16.17;;
22622;SDS011;11478;51.094;7.030;2023-05-10T04:30:19;30.40;;;15.27;;
22622;SDS011;11478;51.094;7.030;2023-05-10T04:32:45;33.25;;;15.18;;
22622;SDS011;11478;51.094;7.030;2023-05-10T04:35:11;29.83;;;14.80;;
22622;SDS011;11478;51.094;7.030;2023-05-10T04:37:39;35.05;;;15.50;;
22622;SDS011;11478;51.094;7.030;2023-05-10T04:40:11;37.90;;;15.45;;
22622;SDS011;11478;51.094;7.030;2023-05-10T04:42:39;30.00;;;15.60;;
22622;SDS011;11478;51.094;7.030;2023-05-10T04:45:09;31.92;;;16.90;;
22622;SDS011;11478;51.094;7.030;2023-05-10T04:47:35;37.22;;;16.77;;
22622;SDS011;11478;51.094;7.030;2023-05-10T04:50:03;31.52;;;15.70;;
22622;SDS011;11478;51.094;7.030;2023-05-10T04:52:29;42.80;;;17.88;;
22622;SDS011;11478;51.094;7.030;2023-05-10T04:54:55;40.53;;;19.30;;
22622;SDS011;11478;51.094;7.030;2023-05-10T04:57:21;52.45;;;21.70;;
22622;SDS011;11478;51.094;7.030;2023-05-10T04:59:48;37.40;;;17.65;;
22622;SDS011;11478;51.094;7.030;2023-05-10T05:02:14;40.95;;;18.02;;
22622;SDS011;11478;51.094;7.030;2023-05-10T05:04:40;42.35;;;20.80;;
22622;SDS011;11478;51.094;7.030;2023-05-10T05:07:06;38.40;;;19.00;;
22622;SDS011;11478;51.094;7.030;2023-05-10T05:09:32;40.83;;;18.40;;
22622;SDS011;11478;51.094;7.030;2023-05-10T05:11:58;42.25;;;19.02;;
22622;SDS011;11478;51.094;7.030;2023-05-10T05:14:24;40.47;;;20.02;;
22622;SDS011;11478;51.094;7.030;2023-05-10T05:16:53;53.90;;;22.25;;
22622;SDS011;11478;51.094;7.030;2023-05-10T05:19:20;53.53;;;23.83;;
22622;SDS011;11478;51.094;7.030;2023-05-10T05:21:47;49.78;;;23.88;;
22622;SDS011;11478;51.094;7.030;2023-05-10T05:24:15;52.28;;;23.38;;
22622;SDS011;11478;51.094;7.030;2023-05-10T05:26:41;58.15;;;25.45;;
22622;SDS011;11478;51.094;7.030;2023-05-10T05:29:07;53.08;;;24.55;;
22622;SDS011;11478;51.094;7.030;2023-05-10T05:31:34;52.15;;;23.45;;
22622;SDS011;11478;51.094;7.030;2023-05-10T05:34:00;55.33;;;25.20;;
22622;SDS011;11478;51.094;7.030;2023-05-10T05:36:26;67.90;;;28.70;;
22622;SDS011;11478;51.094;7.030;2023-05-10T05:38:52;58.25;;;26.85;;
22622;SDS011;11478;51.094;7.030;2023-05-10T05:41:20;55.95;;;27.02;;
22622;SDS011;11478;51.094;7.030;2023-05-10T05:43:46;65.75;;;28.75;;
22622;SDS011;11478;51.094;7.030;2023-05-10T05:46:13;55.53;;;28.15;;
22622;SDS011;11478;51.094;7.030;2023-05-10T05:48:39;52.50;;;27.88;;
22622;SDS011;11478;51.094;7.030;2023-05-10T05:51:06;50.28;;;27.05;;
22622;SDS011;11478;51.094;7.030;2023-05-10T05:53:32;53.88;;;28.80;;
22622;SDS011;11478;51.094;7.030;2023-05-10T05:55:58;53.08;;;28.23;;
22622;SDS011;11478;51.094;7.030;2023-05-10T05:58:25;46.45;;;26.40;;
22622;SDS011;11478;51.094;7.030;2023-05-10T06:00:51;46.25;;;26.17;;
22622;SDS011;11478;51.094;7.030;2023-05-10T06:03:17;47.90;;;25.13;;
22622;SDS011;11478;51.094;7.030;2023-05-10T06:05:44;43.53;;;24.95;;
22622;SDS011;11478;51.094;7.030;2023-05-10T06:08:09;41.75;;;23.33;;
22622;SDS011;11478;51.094;7.030;2023-05-10T06:10:36;37.47;;;22.38;;
22622;SDS011;11478;51.094;7.030;2023-05-10T06:13:02;47.80;;;24.60;;
22622;SDS011;11478;51.094;7.030;2023-05-10T06:15:32;39.95;;;24.33;;
22622;SDS011;11478;51.094;7.030;2023-05-10T06:17:58;42.50;;;23.55;;
22622;SDS011;11478;51.094;7.030;2023-05-10T06:23:16;45.47;;;23.58;;
22622;SDS011;11478;51.094;7.030;2023-05-10T06:28:13;41.75;;;23.17;;
22622;SDS011;11478;51.094;7.030;2023-05-10T06:30:39;41.38;;;22.33;;
22622;SDS011;11478;51.094;7.030;2023-05-10T06:33:05;41.20;;;22.40;;
22622;SDS011;11478;51.094;7.030;2023-05-10T06:35:32;43.60;;;23.05;;
22622;SDS011;11478;51.094;7.030;2023-05-10T06:37:59;50.03;;;24.48;;
22622;SDS011;11478;51.094;7.030;2023-05-10T06:40:27;45.85;;;24.67;;
22622;SDS011;11478;51.094;7.030;2023-05-10T06:42:52;50.25;;;25.30;;
22622;SDS011;11478;51.094;7.030;2023-05-10T06:45:20;45.47;;;24.42;;
22622;SDS011;11478;51.094;7.030;2023-05-10T06:47:46;47.75;;;25.00;;
22622;SDS011;11478;51.094;7.030;2023-05-10T06:50:13;42.00;;;23.73;;
22622;SDS011;11478;51.094;7.030;2023-05-10T06:52:40;58.58;;;27.27;;
22622;SDS011;11478;51.094;7.030;2023-05-10T06:57:35;50.03;;;25.55;;
22622;SDS011;11478;51.094;7.030;2023-05-10T07:00:08;54.97;;;26.30;;
22622;SDS011;11478;51.094;7.030;2023-05-10T07:02:35;48.92;;;24.67;;
22622;SDS011;11478;51.094;7.030;2023-05-10T07:05:13;50.95;;;25.42;;
22622;SDS011;11478;51.094;7.030;2023-05-10T07:07:40;46.63;;;24.30;;
22622;SDS011;11478;51.094;7.030;2023-05-10T07:10:15;50.35;;;25.10;;
22622;SDS011;11478;51.094;7.030;2023-05-10T07:12:40;53.78;;;24.95;;
22622;SDS011;11478;51.094;7.030;2023-05-10T07:15:12;43.80;;;24.00;;
22622;SDS011;11478;51.094;7.030;2023-05-10T07:17:38;59.03;;;26.27;;
22622;SDS011;11478;51.094;7.030;2023-05-10T07:20:09;54.22;;;26.20;;
22622;SDS011;11478;51.094;7.030;2023-05-10T07:22:37;54.45;;;28.15;;
22622;SDS011;11478;51.094;7.030;2023-05-10T07:25:06;51.70;;;26.30;;
22622;SDS011;11478;51.094;7.030;2023-05-10T07:27:32;54.03;;;26.08;;
22622;SDS011;11478;51.094;7.030;2023-05-10T07:30:01;53.85;;;26.42;;
22622;SDS011;11478;51.094;7.030;2023-05-10T07:35:09;52.47;;;26.42;;
22622;SDS011;11478;51.094;7.030;2023-05-10T07:37:36;49.50;;;26.20;;
22622;SDS011;11478;51.094;7.030;2023-05-10T07:40:02;53.75;;;25.00;;
22622;SDS011;11478;51.094;7.030;2023-05-10T07:45:08;54.50;;;24.88;;
22622;SDS011;11478;51.094;7.030;2023-05-10T07:47:36;60.83;;;27.27;;
22622;SDS011;11478;51.094;7.030;2023-05-10T07:50:05;54.38;;;25.58;;
22622;SDS011;11478;51.094;7.030;2023-05-10T07:52:35;50.60;;;25.23;;
22622;SDS011;11478;51.094;7.030;2023-05-10T07:55:10;51.95;;;26.55;;
22622;SDS011;11478;51.094;7.030;2023-05-10T07:57:43;52.35;;;25.27;;
22622;SDS011;11478;51.094;7.030;2023-05-10T08:00:11;49.47;;;24.80;;
22622;SDS011;11478;51.094;7.030;2023-05-10T08:02:38;49.70;;;24.25;;
22622;SDS011;11478;51.094;7.030;2023-05-10T08:05:11;48.50;;;24.92;;
22622;SDS011;11478;51.094;7.030;2023-05-10T08:07:39;48.92;;;24.60;;
22622;SDS011;11478;51.094;7.030;2023-05-10T08:10:06;50.00;;;24.08;;
22622;SDS011;11478;51.094;7.030;2023-05-10T08:12:50;40.13;;;22.42;;
22622;SDS011;11478;51.094;7.030;2023-05-10T08:15:17;50.33;;;24.83;;
22622;SDS011;11478;51.094;7.030;2023-05-10T08:17:43;52.40;;;24.35;;
22622;SDS011;11478;51.094;7.030;2023-05-10T08:20:10;47.35;;;26.15;;
22622;SDS011;11478;51.094;7.030;2023-05-10T08:22:37;51.78;;;26.65;;
22622;SDS011;11478;51.094;7.030;2023-05-10T08:25:09;50.92;;;26.05;;
22622;SDS011;11478;51.094;7.030;2023-05-10T08:27:35;49.72;;;25.42;;
22622;SDS011;11478;51.094;7.030;2023-05-10T08:30:01;52.03;;;26.05;;
22622;SDS011;11478;51.094;7.030;2023-05-10T08:32:28;58.95;;;27.40;;
22622;SDS011;11478;51.094;7.030;2023-05-10T08:34:57;48.83;;;24.38;;
22622;SDS011;11478;51.094;7.030;2023-05-10T08:37:23;48.50;;;25.50;;
22622;SDS011;11478;51.094;7.030;2023-05-10T08:39:52;51.83;;;25.42;;
22622;SDS011;11478;51.094;7.030;2023-05-10T08:42:19;48.08;;;24.65;;
22622;SDS011;11478;51.094;7.030;2023-05-10T08:44:48;47.83;;;23.58;;
22622;SDS011;11478;51.094;7.030;2023-05-10T08:47:15;49.20;;;24.70;;
22622;SDS011;11478;51.094;7.030;2023-05-10T08:49:47;44.15;;;24.13;;
22622;SDS011;11478;51.094;7.030;2023-05-10T08:52:16;46.17;;;24.33;;
22622;SDS011;11478;51.094;7.030;2023-05-10T08:54:43;41.03;;;23.42;;
22622;SDS011;11478;51.094;7.030;2023-05-10T08:57:10;38.70;;;23.40;;
22622;SDS011;11478;51.094;7.030;2023-05-10T08:59:44;37.25;;;21.65;;
22622;SDS011;11478;51.094;7.030;2023-05-10T09:02:12;37.63;;;21.85;;
22622;SDS011;11478;51.094;7.030;2023-05-10T09:04:40;35.70;;;21.30;;
22622;SDS011;11478;51.094;7.030;2023-05-10T09:07:07;39.58;;;21.85;;
22622;SDS011;11478;51.094;7.030;2023-05-10T09:09:41;41.65;;;22.35;;
22622;SDS011;11478;51.094;7.030;2023-05-10T09:12:11;45.20;;;24.17;;
22622;SDS011;11478;51.094;7.030;2023-05-10T09:14:42;42.08;;;23.73;;
22622;SDS011;11478;51.094;7.030;2023-05-10T09:17:09;53.90;;;25.40;;
22622;SDS011;11478;51.094;7.030;2023-05-10T09:19:36;42.53;;;23.27;;
22622;SDS011;11478;51.094;7.030;2023-05-10T09:22:02;43.83;;;22.92;;
22622;SDS011;11478;51.094;7.030;2023-05-10T09:24:29;43.42;;;23.85;;
22622;SDS011;11478;51.094;7.030;2023-05-10T09:26:56;52.15;;;26.17;;
22622;SDS011;11478;51.094;7.030;2023-05-10T09:32:10;60.97;;;26.75;;
22622;SDS011;11478;51.094;7.030;2023-05-10T09:34:37;53.22;;;24.20;;
22622;SDS011;11478;51.094;7.030;2023-05-10T09:37:05;60.70;;;28.30;;
22622;SDS011;11478;51.094;7.030;2023-05-10T09:39:38;52.17;;;26.30;;
22622;SDS011;11478;51.094;7.030;2023-05-10T09:42:08;60.50;;;28.42;;
22622;SDS011;11478;51.094;7.030;2023-05-10T09:44:35;56.95;;;27.40;;
22622;SDS011;11478;51.094;7.030;2023-05-10T09:47:01;55.13;;;27.95;;
22622;SDS011;11478;51.094;7.030;2023-05-10T09:49:31;59.22;;;27.30;;
22622;SDS011;11478;51.094;7.030;2023-05-10T09:54:28;62.45;;;29.17;;
22622;SDS011;11478;51.094;7.030;2023-05-10T09:56:54;61.35;;;28.52;;
22622;SDS011;11478;51.094;7.030;2023-05-10T09:59:26;61.80;;;30.17;;
22622;SDS011;11478;51.094;7.030;2023-05-10T10:01:59;56.50;;;29.10;;
22622;SDS011;11478;51.094;7.030;2023-05-10T10:04:26;64.63;;;31.15;;
22622;SDS011;11478;51.094;7.030;2023-05-10T10:06:59;62.60;;;30.40;;
22622;SDS011;11478;51.094;7.030;2023-05-10T10:09:29;61.28;;;31.20;;
22622;SDS011;11478;51.094;7.030;2023-05-10T10:11:56;57.20;;;31.42;;
22622;SDS011;11478;51.094;7.030;2023-05-10T10:14:24;61.75;;;32.33;;
22622;SDS011;11478;51.094;7.030;2023-05-10T10:16:50;64.15;;;33.47;;
22622;SDS011;11478;51.094;7.030;2023-05-10T10:19:18;63.17;;;34.20;;
22622;SDS011;11478;51.094;7.030;2023-05-10T10:21:45;62.55;;;32.58;;
22622;SDS011;11478;51.094;7.030;2023-05-10T10:24:18;68.68;;;35.40;;
22622;SDS011;11478;51.094;7.030;2023-05-10T10:26:44;64.35;;;34.75;;
22622;SDS011;11478;51.094;7.030;2023-05-10T10:31:55;78.50;;;36.25;;
22622;SDS011;11478;51.094;7.030;2023-05-10T10:34:38;66.90;;;33.88;;
22622;SDS011;11478;51.094;7.030;2023-05-10T10:37:06;73.18;;;36.63;;
22622;SDS011;11478;51.094;7.030;2023-05-10T10:39:32;70.63;;;35.22;;
22622;SDS011;11478;51.094;7.030;2023-05-10T10:42:09;64.75;;;34.42;;
22622;SDS011;11478;51.094;7.030;2023-05-10T10:44:38;67.55;;;35.72;;
22622;SDS011;11478;51.094;7.030;2023-05-10T10:49:50;61.50;;;33.55;;
22622;SDS011;11478;51.094;7.030;2023-05-10T10:54:51;57.33;;;32.05;;
22622;SDS011;11478;51.094;7.030;2023-05-10T10:59:47;59.28;;;32.42;;
22622;SDS011;11478;51.094;7.030;2023-05-10T11:08:01;61.60;;;34.22;;
22622;SDS011;11478;51.094;7.030;2023-05-10T11:10:35;59.42;;;32.67;;
22622;SDS011;11478;51.094;7.030;2023-05-10T11:13:02;59.72;;;31.52;;
22622;SDS011;11478;51.094;7.030;2023-05-10T11:15:34;58.72;;;32.42;;
22622;SDS011;11478;51.094;7.030;2023-05-10T11:18:19;61.20;;;32.30;;
22622;SDS011;11478;51.094;7.030;2023-05-10T11:20:57;59.80;;;32.25;;
22622;SDS011;11478;51.094;7.030;2023-05-10T11:26:08;54.45;;;29.70;;
22622;SDS011;11478;51.094;7.030;2023-05-10T11:28:44;62.38;;;27.73;;
22622;SDS011;11478;51.094;7.030;2023-05-10T11:31:17;43.25;;;25.10;;
22622;SDS011;11478;51.094;7.030;2023-05-10T11:33:58;43.80;;;25.77;;
22622;SDS011;11478;51.094;7.030;2023-05-10T11:36:32;41.00;;;24.65;;
22622;SDS011;11478;51.094;7.030;2023-05-10T11:39:00;44.00;;;24.25;;
22622;SDS011;11478;51.094;7.030;2023-05-10T11:41:28;47.97;;;24.83;;
22622;SDS011;11478;51.094;7.030;2023-05-10T11:44:00;40.97;;;24.80;;
22622;SDS011;11478;51.094;7.030;2023-05-10T11:46:28;43.38;;;25.08;;
22622;SDS011;11478;51.094;7.030;2023-05-10T11:48:57;39.95;;;23.90;;
22622;SDS011;11478;51.094;7.030;2023-05-10T11:51:33;42.20;;;24.65;;
22622;SDS011;11478;51.094;7.030;2023-05-10T11:54:01;39.00;;;23.10;;
22622;SDS011;11478;51.094;7.030;2023-05-10T11:56:36;44.92;;;24.05;;
22622;SDS011;11478;51.094;7.030;2023-05-10T11:59:05;47.50;;;25.17;;
22622;SDS011;11478;51.094;7.030;2023-05-10T12:01:36;43.25;;;23.48;;
22622;SDS011;11478;51.094;7.030;2023-05-10T12:04:02;41.58;;;22.60;;
22622;SDS011;11478;51.094;7.030;2023-05-10T12:06:29;40.53;;;24.02;;
22622;SDS011;11478;51.094;7.030;2023-05-10T12:08:57;40.50;;;22.10;;
22622;SDS011;11478;51.094;7.030;2023-05-10T12:11:28;36.72;;;21.55;;
22622;SDS011;11478;51.094;7.030;2023-05-10T12:13:57;41.10;;;22.42;;
22622;SDS011;11478;51.094;7.030;2023-05-10T12:16:28;34.88;;;20.33;;
22622;SDS011;11478;51.094;7.030;2023-05-10T12:18:57;30.77;;;19.58;;
22622;SDS011;11478;51.094;7.030;2023-05-10T12:21:26;27.90;;;18.20;;
22622;SDS011;11478;51.094;7.030;2023-05-10T12:24:02;27.65;;;17.63;;
22622;SDS011;11478;51.094;7.030;2023-05-10T12:26:35;27.45;;;17.15;;
22622;SDS011;11478;51.094;7.030;2023-05-10T12:29:16;26.60;;;17.25;;
22622;SDS011;11478;51.094;7.030;2023-05-10T12:31:52;26.00;;;17.30;;
22622;SDS011;11478;51.094;7.030;2023-05-10T12:34:25;32.08;;;16.95;;
22622;SDS011;11478;51.094;7.030;2023-05-10T12:37:00;20.33;;;13.95;;
22622;SDS011;11478;51.094;7.030;2023-05-10T12:39:40;24.77;;;16.42;;
22622;SDS011;11478;51.094;7.030;2023-05-10T12:42:07;27.63;;;14.40;;
22622;SDS011;11478;51.094;7.030;2023-05-10T12:44:34;22.77;;;13.13;;
22622;SDS011;11478;51.094;7.030;2023-05-10T12:46:59;20.20;;;13.73;;
22622;SDS011;11478;51.094;7.030;2023-05-10T12:49:25;23.98;;;14.52;;
22622;SDS011;11478;51.094;7.030;2023-05-10T12:51:51;21.35;;;14.52;;
22622;SDS011;11478;51.094;7.030;2023-05-10T12:54:22;21.73;;;14.75;;
22622;SDS011;11478;51.094;7.030;2023-05-10T12:56:50;21.63;;;14.07;;
22622;SDS011;11478;51.094;7.030;2023-05-10T12:59:16;26.80;;;14.55;;
22622;SDS011;11478;51.094;7.030;2023-05-10T13:01:43;24.05;;;14.63;;
22622;SDS011;11478;51.094;7.030;2023-05-10T13:04:08;20.20;;;14.18;;
22622;SDS011;11478;51.094;7.030;2023-05-10T13:06:34;19.33;;;13.70;;
22622;SDS011;11478;51.094;7.030;2023-05-10T13:09:00;21.48;;;14.35;;
22622;SDS011;11478;51.094;7.030;2023-05-10T13:11:28;20.13;;;12.75;;
22622;SDS011;11478;51.094;7.030;2023-05-10T13:13:54;18.98;;;12.75;;
22622;SDS011;11478;51.094;7.030;2023-05-10T13:16:23;18.70;;;11.75;;
22622;SDS011;11478;51.094;7.030;2023-05-10T13:18:52;20.50;;;12.68;;
22622;SDS011;11478;51.094;7.030;2023-05-10T13:21:26;18.70;;;12.02;;
22622;SDS011;11478;51.094;7.030;2023-05-10T13:23:52;21.63;;;13.07;;
22622;SDS011;11478;51.094;7.030;2023-05-10T13:26:18;23.00;;;14.60;;
22622;SDS011;11478;51.094;7.030;2023-05-10T13:28:47;28.38;;;14.88;;
22622;SDS011;11478;51.094;7.030;2023-05-10T13:31:16;25.33;;;13.95;;
22622;SDS011;11478;51.094;7.030;2023-05-10T13:33:41;21.42;;;14.00;;
22622;SDS011;11478;51.094;7.030;2023-05-10T13:36:07;29.08;;;17.80;;
22622;SDS011;11478;51.094;7.030;2023-05-10T13:38:34;28.65;;;18.05;;
22622;SDS011;11478;51.094;7.030;2023-05-10T13:41:00;29.98;;;17.35;;
22622;SDS011;11478;51.094;7.030;2023-05-10T13:43:26;31.20;;;16.90;;
22622;SDS011;11478;51.094;7.030;2023-05-10T13:45:56;27.02;;;18.40;;
22622;SDS011;11478;51.094;7.030;2023-05-10T13:48:22;30.38;;;20.65;;
22622;SDS011;11478;51.094;7.030;2023-05-10T13:50:56;31.67;;;20.20;;
22622;SDS011;11478;51.094;7.030;2023-05-10T13:53:25;27.75;;;19.77;;
22622;SDS011;11478;51.094;7.030;2023-05-10T13:55:51;30.92;;;20.08;;
22622;SDS011;11478;51.094;7.030;2023-05-10T13:58:19;33.58;;;20.27;;
22622;SDS011;11478;51.094;7.030;2023-05-10T14:00:45;28.95;;;20.35;;
22622;SDS011;11478;51.094;7.030;2023-05-10T14:03:11;28.60;;;19.23;;
22622;SDS011;11478;51.094;7.030;2023-05-10T14:05:36;30.35;;;20.52;;
22622;SDS011;11478;51.094;7.030;2023-05-10T14:08:05;27.73;;;20.15;;
22622;SDS011;11478;51.094;7.030;2023-05-10T14:10:31;31.15;;;21.40;;
22622;SDS011;11478;51.094;7.030;2023-05-10T14:12:57;36.08;;;23.20;;
22622;SDS011;11478;51.094;7.030;2023-05-10T14:15:25;32.78;;;22.52;;
22622;SDS011;11478;51.094;7.030;2023-05-10T14:17:54;32.30;;;22.75;;
22622;SDS011;11478;51.094;7.030;2023-05-10T14:20:20;31.40;;;21.65;;
22622;SDS011;11478;51.094;7.030;2023-05-10T14:22:56;31.60;;;20.95;;
22622;SDS011;11478;51.094;7.030;2023-05-10T14:25:22;32.17;;;21.13;;
22622;SDS011;11478;51.094;7.030;2023-05-10T14:27:49;25.38;;;19.40;;
22622;SDS011;11478;51.094;7.030;2023-05-10T14:30:19;27.17;;;19.00;;
22622;SDS011;11478;51.094;7.030;2023-05-10T14:32:45;27.65;;;18.80;;
22622;SDS011;11478;51.094;7.030;2023-05-10T14:35:11;28.73;;;20.15;;
22622;SDS011;11478;51.094;7.030;2023-05-10T14:37:38;31.30;;;20.13;;
22622;SDS011;11478;51.094;7.030;2023-05-10T14:40:05;29.88;;;20.67;;
22622;SDS011;11478;51.094;7.030;2023-05-10T14:45:32;27.95;;;19.55;;
22622;SDS011;11478;51.094;7.030;2023-05-10T14:48:02;31.75;;;20.60;;
22622;SDS011;11478;51.094;7.030;2023-05-10T14:50:31;29.38;;;20.73;;
22622;SDS011;11478;51.094;7.030;2023-05-10T14:53:00;26.50;;;17.95;;
22622;SDS011;11478;51.094;7.030;2023-05-10T14:55:28;25.38;;;19.15;;
22622;SDS011;11478;51.094;7.030;2023-05-10T14:57:58;23.70;;;17.35;;
22622;SDS011;11478;51.094;7.030;2023-05-10T15:00:23;25.33;;;18.55;;
22622;SDS011;11478;51.094;7.030;2023-05-10T15:02:50;24.35;;;17.90;;
22622;SDS011;11478;51.094;7.030;2023-05-10T15:05:16;21.98;;;15.18;;
22622;SDS011;11478;51.094;7.030;2023-05-10T15:07:42;26.17;;;16.83;;
22622;SDS011;11478;51.094;7.030;2023-05-10T15:10:09;27.25;;;16.38;;
22622;SDS011;11478;51.094;7.030;2023-05-10T15:12:37;22.30;;;14.90;;
22622;SDS011;11478;51.094;7.030;2023-05-10T15:15:03;18.10;;;12.48;;
22622;SDS011;11478;51.094;7.030;2023-05-10T15:17:30;18.95;;;12.55;;
22622;SDS011;11478;51.094;7.030;2023-05-10T15:19:58;19.15;;;12.65;;
22622;SDS011;11478;51.094;7.030;2023-05-10T15:22:30;18.45;;;12.82;;
22622;SDS011;11478;51.094;7.030;2023-05-10T15:24:57;22.35;;;13.00;;
22622;SDS011;11478;51.094;7.030;2023-05-10T15:27:27;15.98;;;9.30;;
22622;SDS011;11478;51.094;7.030;2023-05-10T15:29:53;12.50;;;9.13;;
22622;SDS011;11478;51.094;7.030;2023-05-10T15:32:23;15.57;;;10.27;;
22622;SDS011;11478;51.094;7.030;2023-05-10T15:34:49;14.43;;;10.02;;
22622;SDS011;11478;51.094;7.030;2023-05-10T15:37:15;14.35;;;9.93;;
22622;SDS011;11478;51.094;7.030;2023-05-10T15:39:41;14.73;;;9.60;;
22622;SDS011;11478;51.094;7.030;2023-05-10T15:42:08;15.60;;;9.68;;
22622;SDS011;11478;51.094;7.030;2023-05-10T15:44:34;14.40;;;9.50;;